Pagrindinis puslapis
METAR-TAF:

METAR-TAF

Oro uostai :

Santa Maria di Leuca

Castrignano del Capo, Italija

platuma: 39-49N, ilguma: 018-21E, Aukštis: 104 m

Dabartinis oras

Ataskaita buvo paskelbta 1 valandą ir 3 minutes, ne 17:55 UTC
Vėjas 14 kt iš Šiaurės
Temperatūra 11°C
Drėgmė 82%
Slėgis 1024 hPa
Matomumas 10 km arba daugiau
nėra debesų žemiau 1500 m ir nėra kamuolinių lietaus debesų

METAR: LIBY 281755Z 36014KT CAVOK 11/08 Q1024 RMK SKC QUK / QUL / VIS MAR 15 KM VIS MIN 9999

Laikas: 19:58 (18:58 UTC)


TAF: trūkstamas

Orai ataskaitas ir orų prognozės (METAR, TAF).

turimą stotys yra geltonos ir raudonos taškus žemėlapyje.

Perkelti pele per norėdami pamatyti stoties vardą.

Tada spustelėkite, norėdami matyti oro stebėjimo ir prognozės.

Norėdami pakeisti žemėlapį: spustelėkite ant žalios mygtukų su juodo kryžiaus žemyn,; žalią mygtuką su brūkšneliu, jei norite nutolinti; arba žalių rodyklių gretimoms žemėlapius.


METAR-TAF: